Time;durP1;ratioP1;P1;durP2;ratioP2;P2;SDS_P1;SDS_P2;PMS_P1;PMS_P2;Temp;Humidity;BMP_temperature;BMP_pressure;BME280_temperature;BME280_humidity;BME280_pressure;Samples;Min_cycle;Max_cycle;Signal;HPM_P1;HPM_P2
2021/06/11 00:00:32;;;;;;;7.20;3.72;;;;;;;13.30;77.21;96264.91;5136676;28;20055;-83
2021/06/11 00:02:58;;;;;;;4.82;3.60;;;;;;;13.19;77.93;96248.38;5136538;28;20038;-83
2021/06/11 00:05:24;;;;;;;7.45;3.88;;;;;;;13.17;77.94;96248.88;5136620;28;20027;-83
2021/06/11 00:07:50;;;;;;;4.32;3.47;;;;;;;13.06;77.60;96240.53;5137604;27;20019;-83
2021/06/11 00:10:17;;;;;;;7.53;3.63;;;;;;;13.33;78.11;96283.06;5136379;28;20027;-83
2021/06/11 00:12:42;;;;;;;4.15;3.75;;;;;;;13.06;78.32;96257.66;5153372;27;20031;-83
2021/06/11 00:15:10;;;;;;;6.03;3.90;;;;;;;13.18;78.31;96274.91;5140515;27;20445;-83
2021/06/11 00:17:36;;;;;;;4.35;3.95;;;;;;;13.05;79.57;96258.13;5140552;27;20111;-83
2021/06/11 00:20:01;;;;;;;6.28;3.80;;;;;;;12.98;78.68;96255.78;5140559;27;20106;-83
2021/06/11 00:22:26;;;;;;;5.78;3.72;;;;;;;12.78;78.68;96221.09;5140421;27;20119;-83
2021/06/11 00:24:52;;;;;;;5.93;4.25;;;;;;;12.63;78.11;96195.88;5140471;27;20033;-83
2021/06/11 00:27:18;;;;;;;6.40;4.10;;;;;;;12.84;78.29;96230.09;5141538;27;20034;-83
2021/06/11 00:29:43;;;;;;;5.78;3.78;;;;;;;12.72;78.39;96218.28;5140316;27;20029;-83
2021/06/11 00:32:09;;;;;;;6.22;3.75;;;;;;;13.00;78.56;96264.25;5140610;27;20079;-83
2021/06/11 00:34:34;;;;;;;4.90;3.38;;;;;;;13.07;78.03;96267.31;5140470;27;20067;-83
2021/06/11 00:37:00;;;;;;;8.40;4.10;;;;;;;12.96;78.28;96252.81;5141339;27;20023;-83
2021/06/11 00:39:26;;;;;;;4.93;4.07;;;;;;;12.62;79.19;96222.34;5141234;27;20019;-83
2021/06/11 00:41:51;;;;;;;7.22;4.30;;;;;;;12.64;78.68;96228.09;5141220;27;20038;-83
2021/06/11 00:44:17;;;;;;;8.95;4.60;;;;;;;12.28;77.49;96197.34;5141178;27;20315;-83
2021/06/11 00:46:42;;;;;;;6.43;3.85;;;;;;;12.85;78.25;96283.38;5141103;27;20319;-83
2021/06/11 00:49:08;;;;;;;7.07;4.65;;;;;;;12.36;77.77;96222.25;5140054;27;20019;-83
2021/06/11 00:51:34;;;;;;;8.02;4.10;;;;;;;12.32;77.75;96221.69;5139971;27;20030;-83
2021/06/11 00:53:59;;;;;;;7.90;4.70;;;;;;;12.30;77.48;96219.44;5139809;27;20436;-83
2021/06/11 00:56:25;;;;;;;7.20;4.63;;;;;;;12.49;77.81;96246.44;5139868;27;20300;-83
2021/06/11 00:58:51;;;;;;;6.45;4.57;;;;;;;12.49;77.81;96246.44;5154983;27;20033;-83
2021/06/11 01:01:16;;;;;;;8.75;4.90;;;;;;;12.06;77.27;96203.22;5160484;27;20402;-84
2021/06/11 01:03:42;;;;;;;7.38;4.55;;;;;;;12.14;78.02;96238.97;5161534;27;20026;-82
2021/06/11 01:06:07;;;;;;;7.57;4.68;;;;;;;12.01;77.78;96220.19;5161466;27;20384;-83
2021/06/11 01:08:33;;;;;;;12.88;5.00;;;;;;;11.98;78.50;96234.00;5161545;27;20026;-83
2021/06/11 01:10:59;;;;;;;7.78;4.95;;;;;;;12.38;78.76;96276.22;5160320;27;20061;-83
2021/06/11 01:13:26;;;;;;;6.25;4.38;;;;;;;11.92;78.24;96223.00;5160190;27;20046;-83
2021/06/11 01:15:53;;;;;;;9.48;4.95;;;;;;;11.91;78.91;96215.31;5161261;27;20075;-83
2021/06/11 01:18:19;;;;;;;7.80;4.75;;;;;;;12.16;79.73;96255.59;5160212;27;20026;-82
2021/06/11 01:20:45;;;;;;;5.80;4.20;;;;;;;12.07;79.34;96229.22;5159934;27;20061;-83
2021/06/11 01:23:52;;;;;;;5.97;4.47;;;;;;;12.23;78.51;96276.22;5161209;27;20011;-83
2021/06/11 01:26:38;;;;;;;8.30;4.43;;;;;;;12.15;78.65;96275.88;5158690;27;20037;-83
2021/06/11 01:29:08;;;;;;;5.75;4.65;;;;;;;11.94;78.53;96241.63;5160020;27;20410;-83
2021/06/11 01:31:37;;;;;;;7.80;4.55;;;;;;;12.03;78.92;96269.47;5159961;27;20109;-82
2021/06/11 01:34:07;;;;;;;6.93;4.65;;;;;;;12.02;79.36;96262.53;5159773;27;20100;-83
2021/06/11 01:36:42;;;;;;;6.72;4.47;;;;;;;11.63;79.79;96225.69;5159874;27;20109;-82
2021/06/11 01:39:10;;;;;;;7.28;4.45;;;;;;;11.95;79.01;96271.06;5159821;27;20034;-83
2021/06/11 01:41:38;;;;;;;6.85;4.53;;;;;;;11.64;79.87;96236.09;5160799;27;20075;-83
2021/06/11 01:44:07;;;;;;;9.48;4.90;;;;;;;11.52;79.27;96213.41;5159733;27;20475;-82
2021/06/11 01:46:34;;;;;;;6.45;4.60;;;;;;;11.85;79.17;96266.94;5159813;27;20029;-83
2021/06/11 01:49:01;;;;;;;8.55;4.90;;;;;;;11.77;80.19;96261.09;5160631;27;20363;-83
2021/06/11 01:51:28;;;;;;;8.88;4.53;;;;;;;11.73;80.15;96257.03;5159424;27;20079;-83
2021/06/11 01:53:54;;;;;;;9.10;4.28;;;;;;;11.53;79.69;96206.00;5160377;27;20033;-83
2021/06/11 01:56:20;;;;;;;8.45;4.70;;;;;;;11.64;78.80;96243.53;5159464;27;20023;-83
2021/06/11 01:58:46;;;;;;;7.75;4.68;;;;;;;11.35;78.76;96190.59;5160464;27;20050;-82
2021/06/11 02:01:13;;;;;;;7.78;4.47;;;;;;;10.91;79.39;96144.28;5159327;27;20115;-82
2021/06/11 02:03:43;;;;;;;8.10;4.50;;;;;;;11.34;78.55;96215.50;5159276;27;20151;-83
2021/06/11 02:06:13;;;;;;;7.50;4.70;;;;;;;11.31;79.78;96208.31;5159190;27;20342;-83
2021/06/11 02:08:39;;;;;;;5.97;4.90;;;;;;;11.19;80.64;96202.66;5159238;27;20030;-82
2021/06/11 02:11:05;;;;;;;6.38;4.38;;;;;;;11.31;80.75;96230.06;5160253;27;20031;-83
2021/06/11 02:13:31;;;;;;;7.97;4.50;;;;;;;11.40;79.84;96238.88;5159877;27;20030;-83
2021/06/11 02:15:58;;;;;;;9.82;4.85;;;;;;;11.32;79.69;96232.28;5159892;27;20026;-82
2021/06/11 02:18:25;;;;;;;13.82;5.03;;;;;;;11.49;79.86;96271.44;5159026;27;20022;-83
2021/06/11 02:20:52;;;;;;;5.68;4.60;;;;;;;11.26;80.58;96243.06;5159868;27;20078;-82
2021/06/11 02:23:19;;;;;;;7.00;4.72;;;;;;;11.49;80.50;96267.97;5158908;27;20027;-82
2021/06/11 02:25:45;;;;;;;12.07;4.72;;;;;;;11.38;80.53;96246.75;5159941;27;20019;-82
2021/06/11 02:28:15;;;;;;;7.50;5.05;;;;;;;11.26;81.40;96228.72;5158798;27;20018;-82
2021/06/11 02:30:41;;;;;;;10.07;5.85;;;;;;;11.13;80.74;96220.81;5179618;27;20074;-83
2021/06/11 02:33:07;;;;;;;14.07;9.50;;;;;;;11.21;80.69;96237.50;5181465;27;20030;-83
2021/06/11 02:35:32;;;;;;;7.35;6.00;;;;;;;11.26;80.87;96239.59;5179414;27;20030;-83
2021/06/11 02:37:58;;;;;;;12.38;6.30;;;;;;;11.24;81.03;96237.34;5179214;27;20037;-83
2021/06/11 02:40:24;;;;;;;8.73;5.80;;;;;;;11.35;81.49;96263.25;5179405;27;20405;-83
2021/06/11 02:43:04;;;;;;;7.57;5.60;;;;;;;11.16;81.65;96219.13;5180437;27;20026;-83
2021/06/11 02:45:36;;;;;;;9.60;5.83;;;;;;;11.61;81.41;96277.84;5180481;27;20030;-83
2021/06/11 02:48:09;;;;;;;9.10;5.32;;;;;;;11.70;81.07;96279.72;5180435;27;20105;-83
2021/06/11 02:50:52;;;;;;;8.63;5.07;;;;;;;10.73;81.36;96147.88;5180287;27;20086;-83
2021/06/11 02:53:25;;;;;;;11.77;5.47;;;;;;;11.68;81.15;96280.22;5179135;27;20199;-83
2021/06/11 02:55:57;;;;;;;11.10;5.28;;;;;;;11.55;81.75;96257.94;5180247;27;20071;-83
2021/06/11 02:58:27;;;;;;;9.77;4.97;;;;;;;11.35;81.63;96223.22;5174369;27;20492;-83
2021/06/11 03:00:54;;;;;;;11.20;5.10;;;;;;;11.26;81.23;96201.53;5179059;27;20321;-83
2021/06/11 03:03:23;;;;;;;8.27;5.00;;;;;;;11.67;81.54;96262.38;5178955;27;20019;-83
2021/06/11 03:05:53;;;;;;;8.23;5.03;;;;;;;11.62;80.43;96240.53;5178956;27;20027;-83
2021/06/11 03:08:24;;;;;;;6.38;4.80;;;;;;;11.90;80.93;96279.13;5178994;27;20085;-83
2021/06/11 03:10:54;;;;;;;6.47;5.18;;;;;;;11.77;80.45;96282.84;5178891;27;20022;-83
2021/06/11 03:13:22;;;;;;;6.78;4.63;;;;;;;11.49;80.47;96238.78;5179873;27;20048;-83
2021/06/11 03:15:49;;;;;;;8.73;4.93;;;;;;;11.39;80.48;96210.19;5179867;27;20030;-83
2021/06/11 03:18:44;;;;;;;8.60;4.40;;;;;;;12.08;79.30;96281.66;5179802;27;20022;-83
2021/06/11 03:21:17;;;;;;;8.20;4.18;;;;;;;12.08;79.30;96281.66;5175771;27;20042;-83
2021/06/11 03:23:50;;;;;;;8.10;4.35;;;;;;;12.08;79.30;96281.66;5178789;27;20048;-83
2021/06/11 03:26:22;;;;;;;8.40;4.85;;;;;;;12.08;79.30;96281.66;5161528;27;20413;-83
2021/06/11 03:28:51;;;;;;;5.43;4.45;;;;;;;12.08;79.30;96281.66;5179732;27;20470;-83
2021/06/11 03:31:22;;;;;;;6.25;4.63;;;;;;;-145.61;100.00;68426.72;5179521;27;20026;-83
2021/06/11 03:33:52;;;;;;;6.60;4.55;;;;;;;11.83;100.00;87976.78;5178491;27;20152;-83
2021/06/11 03:36:22;;;;;;;7.63;4.32;;;;;;;11.83;79.09;96260.47;5173110;27;20150;-83
2021/06/11 03:38:56;;;;;;;11.20;5.22;;;;;;;11.83;79.09;96260.47;5159217;27;20318;-83
2021/06/11 03:41:22;;;;;;;7.63;4.90;;;;;;;11.83;79.09;96260.47;5159358;27;20314;-83
2021/06/11 03:43:50;;;;;;;6.95;4.80;;;;;;;11.86;79.11;96263.00;5157454;27;20022;-84
2021/06/11 03:46:18;;;;;;;5.45;4.78;;;;;;;12.13;79.46;96291.16;5157279;27;20109;-82
2021/06/11 03:48:49;;;;;;;9.27;4.95;;;;;;;12.13;79.46;96291.16;5158762;27;20417;-83
2021/06/11 03:51:16;;;;;;;8.60;4.78;;;;;;;12.13;79.46;96291.16;5157400;27;20076;-83
2021/06/11 03:53:43;;;;;;;5.47;4.80;;;;;;;12.13;79.46;96291.16;5158438;27;20015;-83
2021/06/11 03:56:11;;;;;;;6.65;5.25;;;;;;;12.13;79.46;96291.16;5165510;27;20026;-83
2021/06/11 03:58:41;;;;;;;7.32;5.15;;;;;;;11.89;80.08;96231.38;5178220;27;20030;-83
2021/06/11 04:01:09;;;;;;;6.70;4.97;;;;;;;12.23;80.15;96290.59;5179509;27;20131;-83
2021/06/11 04:03:47;;;;;;;8.88;4.63;;;;;;;12.13;79.45;96250.31;5177812;27;20057;-83
2021/06/11 04:06:22;;;;;;;8.93;4.75;;;;;;;12.13;79.45;96250.31;5178039;27;20369;-83
2021/06/11 04:08:51;;;;;;;6.80;5.38;;;;;;;12.13;79.45;96250.31;5180136;27;20026;-83
2021/06/11 04:11:21;;;;;;;7.05;4.93;;;;;;;12.13;79.45;96250.31;5178164;27;20053;-85
2021/06/11 04:13:59;;;;;;;8.38;4.63;;;;;;;12.13;79.45;96250.31;5179910;27;20050;-83
2021/06/11 04:16:38;;;;;;;6.97;4.80;;;;;;;;;;5160774;27;20061;-84
2021/06/11 04:19:09;;;;;;;11.32;5.10;;;;;;;12.13;79.45;96250.31;5137692;27;20026;-83
2021/06/11 04:21:34;;;;;;;6.38;5.13;;;;;;;-145.61;100.00;68426.72;5137178;27;20043;-83
2021/06/11 04:24:11;;;;;;;7.63;5.25;;;;;;;-145.61;100.00;68426.72;5139643;27;20106;-83
2021/06/11 04:26:40;;;;;;;8.55;4.97;;;;;;;-145.61;100.00;68426.72;5136414;28;20034;-83
2021/06/11 04:29:11;;;;;;;5.88;5.25;;;;;;;-145.61;100.00;68426.72;5137522;27;20023;-83
2021/06/11 04:31:37;;;;;;;6.60;4.72;;;;;;;-145.61;100.00;68426.72;5136434;27;20018;-83
2021/06/11 04:34:03;;;;;;;8.75;5.32;;;;;;;-145.61;100.00;68426.72;5136336;27;20458;-83
2021/06/11 04:36:29;;;;;;;6.85;4.97;;;;;;;-145.61;100.00;68426.72;5150664;27;20029;-82
2021/06/11 04:38:58;;;;;;;7.88;4.80;;;;;;;-145.61;100.00;68426.72;5136204;28;20023;-82
2021/06/11 04:41:25;;;;;;;8.77;4.90;;;;;;;-145.61;100.00;68426.72;5135892;28;20019;-83
2021/06/11 04:43:51;;;;;;;5.70;4.75;;;;;;;-145.61;100.00;68426.72;5136190;28;20076;-82
2021/06/11 04:46:17;;;;;;;8.13;5.20;;;;;;;-145.61;100.00;68426.72;5137315;27;20030;-82
2021/06/11 04:48:42;;;;;;;8.48;5.10;;;;;;;-145.61;100.00;68426.72;5136155;28;20023;-82
2021/06/11 04:51:08;;;;;;;7.40;5.38;;;;;;;-145.61;100.00;68426.72;5139080;27;20027;-83
2021/06/11 04:53:34;;;;;;;11.50;5.47;;;;;;;-145.61;100.00;68426.72;5138906;27;20419;-82
2021/06/11 04:56:00;;;;;;;12.13;6.00;;;;;;;-145.61;100.00;68426.72;5153788;27;20031;-82
2021/06/11 04:58:28;;;;;;;15.27;6.38;;;;;;;-145.61;100.00;68426.72;5145523;27;20031;-82
2021/06/11 05:00:53;;;;;;;9.52;5.45;;;;;;;-145.61;100.00;68426.72;5140419;27;20464;-83
2021/06/11 05:03:19;;;;;;;9.35;5.22;;;;;;;-145.61;100.00;68426.72;5140787;27;20019;-82
2021/06/11 05:05:44;;;;;;;10.02;5.60;;;;;;;-145.61;100.00;68426.72;5139603;27;20314;-83
2021/06/11 05:08:10;;;;;;;9.65;5.78;;;;;;;-145.61;100.00;68426.72;5144996;27;20023;-84
2021/06/11 05:10:38;;;;;;;11.07;5.40;;;;;;;-145.61;100.00;68426.72;5151077;27;20295;-84
2021/06/11 05:13:03;;;;;;;12.30;6.10;;;;;;;-145.61;100.00;68426.72;5154889;27;20047;-84
2021/06/11 05:15:29;;;;;;;9.48;5.43;;;;;;;-145.61;100.00;68426.72;5166255;27;20034;-83
2021/06/11 05:17:54;;;;;;;11.13;6.20;;;;;;;-145.61;100.00;68426.72;5159904;27;20105;-82
2021/06/11 05:20:20;;;;;;;12.30;7.22;;;;;;;-145.61;100.00;68426.72;5163366;27;20119;-83
2021/06/11 05:22:46;;;;;;;9.40;6.75;;;;;;;-145.61;100.00;68426.72;5144481;27;20039;-83
2021/06/11 05:25:11;;;;;;;9.93;6.00;;;;;;;-145.61;100.00;68426.72;5139258;27;20023;-84
2021/06/11 05:27:37;;;;;;;7.88;5.38;;;;;;;-145.61;100.00;68426.72;5140870;27;20031;-84
2021/06/11 05:30:03;;;;;;;9.35;5.05;;;;;;;-145.61;100.00;68426.72;5140544;27;20071;-83
2021/06/11 05:32:29;;;;;;;11.07;5.65;;;;;;;-145.61;100.00;68426.72;5139139;27;20027;-82
2021/06/11 05:34:54;;;;;;;9.55;5.60;;;;;;;-145.61;100.00;68426.72;5145691;27;20290;-82
2021/06/11 05:37:20;;;;;;;9.95;5.00;;;;;;;-145.61;100.00;68426.72;5156750;27;20410;-82
2021/06/11 05:39:45;;;;;;;8.60;5.55;;;;;;;12.13;79.45;96250.31;5160338;27;20022;-82
2021/06/11 05:42:11;;;;;;;9.88;5.20;;;;;;;12.13;79.45;96250.31;5159604;27;20023;-82
2021/06/11 05:44:37;;;;;;;12.18;5.55;;;;;;;12.13;79.45;96250.31;5160820;27;20087;-82
2021/06/11 05:47:04;;;;;;;8.95;5.20;;;;;;;12.13;79.45;96250.31;5160615;27;20042;-82
2021/06/11 05:49:29;;;;;;;8.23;5.20;;;;;;;12.13;79.45;96250.31;5155471;27;20031;-82
2021/06/11 05:51:54;;;;;;;7.95;5.30;;;;;;;12.13;79.45;96250.31;5174266;27;20029;-82
2021/06/11 05:54:20;;;;;;;7.63;4.97;;;;;;;12.13;79.45;96250.31;5151290;27;20039;-82
2021/06/11 05:56:46;;;;;;;8.70;5.18;;;;;;;12.13;79.45;96250.31;5150298;27;20369;-82
2021/06/11 05:59:12;;;;;;;6.53;5.22;;;;;;;14.69;68.99;96223.75;5140306;27;20019;-82
2021/06/11 06:01:37;;;;;;;11.32;5.45;;;;;;;14.88;69.37;96235.81;5138555;27;20114;-82
2021/06/11 06:04:03;;;;;;;12.32;5.22;;;;;;;14.82;68.58;96223.34;5139647;27;20051;-82
2021/06/11 06:06:28;;;;;;;8.32;5.28;;;;;;;14.89;67.65;96236.53;5139538;27;20569;-82
2021/06/11 06:08:54;;;;;;;9.77;5.28;;;;;;;14.94;67.71;96222.16;5139536;27;20058;-82
2021/06/11 06:11:20;;;;;;;9.07;5.53;;;;;;;15.03;67.63;96227.44;5137564;27;20027;-82
2021/06/11 06:13:45;;;;;;;10.15;5.72;;;;;;;15.15;67.05;96234.44;5139955;27;20095;-81
2021/06/11 06:16:11;;;;;;;10.68;5.20;;;;;;;15.38;66.40;96248.94;5138061;27;20031;-82
2021/06/11 06:18:37;;;;;;;12.23;5.97;;;;;;;15.21;66.76;96226.25;5174301;27;20416;-82
2021/06/11 06:21:03;;;;;;;9.73;5.15;;;;;;;15.39;66.61;96241.50;5167455;27;20171;-82
2021/06/11 06:23:28;;;;;;;18.40;5.63;;;;;;;15.67;66.36;96260.78;5137957;27;20056;-82
2021/06/11 06:25:54;;;;;;;9.77;4.88;;;;;;;15.49;65.58;96220.88;5151789;27;20113;-82
2021/06/11 06:28:20;;;;;;;8.82;4.70;;;;;;;15.49;66.15;96201.72;5159801;27;20318;-83
2021/06/11 06:30:45;;;;;;;6.68;4.47;;;;;;;15.73;64.76;96225.94;5159796;27;20026;-83
2021/06/11 06:33:11;;;;;;;8.57;4.93;;;;;;;15.73;64.97;96215.00;5158601;27;20033;-83
2021/06/11 06:35:37;;;;;;;7.60;5.07;;;;;;;15.93;64.36;96242.16;5159662;27;20022;-83
2021/06/11 06:38:03;;;;;;;8.45;4.82;;;;;;;15.83;64.33;96208.06;5158491;27;20113;-83
2021/06/11 06:40:29;;;;;;;7.53;4.63;;;;;;;15.89;65.75;96208.81;5158449;27;20422;-82
2021/06/11 06:42:54;;;;;;;7.35;4.95;;;;;;;16.03;64.24;96214.53;5138985;27;20057;-83
2021/06/11 06:45:21;;;;;;;8.05;5.45;;;;;;;16.18;64.83;96226.00;5139372;27;20023;-83
2021/06/11 06:47:48;;;;;;;6.90;4.53;;;;;;;16.38;64.04;96242.19;5139611;27;20027;-83
2021/06/11 06:50:19;;;;;;;14.65;6.18;;;;;;;16.64;65.14;96263.13;5138739;27;20027;-83
2021/06/11 06:52:46;;;;;;;10.52;6.03;;;;;;;16.52;65.63;96232.22;5137284;27;20317;-82
2021/06/11 06:55:13;;;;;;;10.52;5.97;;;;;;;16.64;65.31;96232.97;5145041;27;20075;-83
2021/06/11 06:57:38;;;;;;;12.68;6.05;;;;;;;16.87;63.41;96267.34;5146002;27;20027;-83
2021/06/11 07:00:06;;;;;;;11.27;5.25;;;;;;;16.63;63.63;96221.25;5158162;27;20126;-83
2021/06/11 07:02:42;;;;;;;7.57;5.40;;;;;;;16.83;63.79;96227.69;5158133;27;20060;-83
2021/06/11 07:05:09;;;;;;;11.05;5.75;;;;;;;16.70;64.11;96200.78;5158093;27;20025;-84
2021/06/11 07:07:34;;;;;;;8.40;5.63;;;;;;;17.23;63.04;96262.75;5158743;27;20023;-84
2021/06/11 07:10:00;;;;;;;9.50;5.97;;;;;;;17.00;62.07;96215.47;5157954;27;20033;-83
2021/06/11 07:12:28;;;;;;;8.75;5.30;;;;;;;17.01;62.50;96203.22;5155284;27;20026;-83
2021/06/11 07:14:54;;;;;;;10.45;5.28;;;;;;;17.05;62.27;96200.22;5139495;27;20026;-83
2021/06/11 07:17:20;;;;;;;8.65;5.20;;;;;;;17.25;60.59;96216.34;5153147;27;20030;-83
2021/06/11 07:19:45;;;;;;;9.00;5.47;;;;;;;17.16;57.12;96180.25;5148024;27;20023;-83
2021/06/11 07:22:11;;;;;;;8.45;5.47;;;;;;;17.31;58.28;96199.09;5143462;27;20047;-82
2021/06/11 07:24:38;;;;;;;5.78;4.57;;;;;;;17.78;56.95;96252.06;5141570;27;20019;-82
2021/06/11 07:27:05;;;;;;;8.38;4.90;;;;;;;17.58;56.11;96209.22;5139754;27;20027;-82
2021/06/11 07:29:31;;;;;;;6.55;4.68;;;;;;;17.77;54.93;96209.38;5157669;27;20025;-82
2021/06/11 07:31:57;;;;;;;8.13;4.20;;;;;;;17.93;57.40;96216.75;5156936;27;20030;-83
2021/06/11 07:34:23;;;;;;;6.93;4.70;;;;;;;18.21;57.08;96240.53;5157738;27;20033;-82
2021/06/11 07:36:49;;;;;;;5.82;4.07;;;;;;;17.90;57.29;96184.09;5157424;27;20027;-82
2021/06/11 07:39:17;;;;;;;5.85;3.97;;;;;;;18.06;57.13;96188.72;5147254;27;20034;-82
2021/06/11 07:41:43;;;;;;;7.63;3.92;;;;;;;18.42;56.35;96246.38;5157449;27;20420;-82
2021/06/11 07:44:09;;;;;;;4.63;3.70;;;;;;;18.00;53.24;96177.78;5157478;27;20033;-82
2021/06/11 07:46:37;;;;;;;8.43;3.60;;;;;;;18.29;54.49;96203.00;5157452;27;20030;-82
2021/06/11 07:49:04;;;;;;;5.30;3.80;;;;;;;18.72;54.60;96246.41;5156677;27;20022;-82
2021/06/11 07:51:30;;;;;;;5.93;3.83;;;;;;;18.70;56.99;96221.44;5146056;27;20022;-82
2021/06/11 07:53:55;;;;;;;4.75;3.60;;;;;;;18.68;53.96;96199.91;5151393;27;20079;-82
2021/06/11 07:56:21;;;;;;;6.95;3.65;;;;;;;18.55;53.33;96177.78;5174701;27;20041;-82
2021/06/11 07:58:46;;;;;;;3.85;3.38;;;;;;;18.74;54.64;96217.09;5178751;27;20428;-82
2021/06/11 08:01:12;;;;;;;4.43;3.47;;;;;;;18.54;53.47;96206.56;5178162;27;20029;-82
2021/06/11 08:03:38;;;;;;;5.85;3.38;;;;;;;18.34;53.80;96174.72;5160284;27;20026;-82
2021/06/11 08:06:04;;;;;;;7.47;3.50;;;;;;;18.93;55.30;96238.44;5138223;27;20087;-82
2021/06/11 08:08:29;;;;;;;8.80;3.90;;;;;;;18.73;57.14;96204.63;5175103;27;20037;-82
2021/06/11 08:10:55;;;;;;;4.72;3.33;;;;;;;18.92;53.26;96239.72;5158313;27;20094;-82
2021/06/11 08:13:21;;;;;;;3.90;3.22;;;;;;;18.56;52.15;96169.00;5148252;27;20494;-82
2021/06/11 08:15:46;;;;;;;6.70;3.30;;;;;;;18.81;52.92;96169.78;5157227;27;20027;-82
2021/06/11 08:18:12;;;;;;;5.47;3.20;;;;;;;19.02;52.58;96172.81;5157147;27;20015;-83
2021/06/11 08:20:38;;;;;;;5.20;3.22;;;;;;;19.21;50.07;96183.09;5168810;27;20050;-83
2021/06/11 08:23:05;;;;;;;5.60;3.25;;;;;;;19.28;50.65;96180.50;5142824;27;20019;-83
2021/06/11 08:25:32;;;;;;;3.50;2.90;;;;;;;19.36;49.96;96180.66;5136574;27;20038;-82
2021/06/11 08:27:58;;;;;;;4.38;3.42;;;;;;;19.37;48.64;96206.91;5143628;27;20023;-82
2021/06/11 08:30:24;;;;;;;3.03;2.70;;;;;;;19.22;48.80;96198.34;5151371;27;20023;-82
2021/06/11 08:32:52;;;;;;;3.38;2.53;;;;;;;19.36;48.29;96181.38;5136181;28;20322;-83
2021/06/11 08:35:18;;;;;;;5.45;3.25;;;;;;;19.84;47.22;96223.84;5138804;27;20418;-83
2021/06/11 08:37:46;;;;;;;4.03;3.05;;;;;;;20.11;49.23;96221.94;5141330;27;20054;-83
2021/06/11 08:40:14;;;;;;;3.25;2.95;;;;;;;19.86;48.71;96154.41;5156438;27;20047;-82
2021/06/11 08:42:42;;;;;;;3.95;3.10;;;;;;;20.55;49.32;96216.97;5160807;27;20030;-83
2021/06/11 08:45:08;;;;;;;4.72;3.13;;;;;;;20.77;48.71;96223.38;5161513;27;20023;-83
2021/06/11 08:47:35;;;;;;;7.78;3.30;;;;;;;20.52;48.17;96176.69;5160688;27;20019;-82
2021/06/11 08:50:01;;;;;;;4.68;2.53;;;;;;;20.71;45.14;96192.38;5160747;27;20330;-83
2021/06/11 08:52:28;;;;;;;6.07;2.58;;;;;;;20.69;46.92;96214.25;5160595;27;20023;-83
2021/06/11 08:54:55;;;;;;;4.63;2.80;;;;;;;20.54;47.09;96214.75;5161619;27;20079;-83
2021/06/11 08:57:22;;;;;;;4.95;2.90;;;;;;;20.12;48.17;96171.03;5171383;27;20041;-83
2021/06/11 08:59:52;;;;;;;5.90;3.25;;;;;;;20.27;49.43;96213.91;5152970;27;20027;-82
2021/06/11 09:02:17;;;;;;;4.47;3.05;;;;;;;19.98;50.07;96183.31;5161344;27;20030;-83
2021/06/11 09:04:54;;;;;;;8.02;3.42;;;;;;;20.20;51.49;96233.84;5161526;27;20018;-82
2021/06/11 09:07:25;;;;;;;10.20;3.90;;;;;;;20.09;53.14;96237.50;5160507;27;20429;-83
2021/06/11 09:09:56;;;;;;;6.18;3.20;;;;;;;20.02;51.62;96238.09;5155952;27;20083;-83
2021/06/11 09:12:37;;;;;;;9.15;3.63;;;;;;;19.86;52.28;96237.06;5160328;27;20022;-83
2021/06/11 09:15:11;;;;;;;7.28;3.60;;;;;;;19.38;53.91;96181.59;5164905;27;20022;-83
2021/06/11 09:17:50;;;;;;;9.13;3.75;;;;;;;19.58;55.00;96235.41;5177864;27;20102;-82
2021/06/11 09:20:18;;;;;;;6.65;3.30;;;;;;;19.25;54.41;96197.31;5160021;27;20027;-83
2021/06/11 09:22:52;;;;;;;6.25;3.28;;;;;;;19.12;55.99;96184.19;5142023;27;20031;-83
2021/06/11 09:25:33;;;;;;;4.60;3.47;;;;;;;19.46;55.66;96236.09;5156154;27;20027;-83
2021/06/11 09:28:08;;;;;;;5.05;3.45;;;;;;;19.22;55.41;96206.59;5160911;27;20425;-83
2021/06/11 09:30:36;;;;;;;5.80;3.67;;;;;;;19.47;54.39;96234.81;5148525;27;20031;-83
2021/06/11 09:33:05;;;;;;;5.85;3.60;;;;;;;19.47;54.44;96235.56;5138999;27;20155;-82
2021/06/11 09:35:34;;;;;;;5.65;3.22;;;;;;;19.51;54.91;96235.28;5139359;27;20027;-82
2021/06/11 09:38:14;;;;;;;8.50;3.53;;;;;;;19.17;51.97;96186.13;5139047;27;20027;-82
2021/06/11 09:40:48;;;;;;;7.20;3.55;;;;;;;19.41;53.18;96201.84;5159833;27;20079;-82
2021/06/11 09:43:15;;;;;;;5.57;3.40;;;;;;;19.74;51.95;96241.25;5144231;27;20031;-82
2021/06/11 09:45:41;;;;;;;4.03;3.03;;;;;;;19.62;51.50;96215.88;5139003;27;20031;-82
2021/06/11 09:48:47;;;;;;;6.20;2.90;;;;;;;19.71;50.50;96212.75;5156141;27;20080;-83
2021/06/11 09:51:18;;;;;;;3.78;2.70;;;;;;;19.91;48.08;96227.25;5147429;27;20084;-82
2021/06/11 09:53:44;;;;;;;4.80;3.08;;;;;;;19.73;49.82;96188.19;5143414;27;20029;-82
2021/06/11 09:56:27;;;;;;;3.75;3.20;;;;;;;19.83;50.62;96194.78;5160282;27;20054;-82
2021/06/11 09:58:56;;;;;;;5.60;2.70;;;;;;;20.40;45.63;96211.22;5142594;27;20085;-82
2021/06/11 10:01:24;;;;;;;3.63;2.63;;;;;;;20.21;46.72;96117.53;5160330;27;20027;-82
2021/06/11 10:03:53;;;;;;;3.40;2.72;;;;;;;21.01;43.92;96179.03;5144904;27;20429;-82
2021/06/11 10:06:21;;;;;;;5.55;2.90;;;;;;;21.54;43.11;96203.09;5145431;27;20140;-82
2021/06/11 10:08:49;;;;;;;4.10;3.00;;;;;;;21.40;40.03;96144.38;5152618;27;20025;-83
2021/06/11 10:11:26;;;;;;;3.42;2.58;;;;;;;21.67;41.44;96154.06;5159140;27;20110;-83
2021/06/11 10:13:54;;;;;;;9.05;3.10;;;;;;;21.79;46.61;96137.25;5165755;27;20027;-85
2021/06/11 10:16:21;;;;;;;4.28;2.70;;;;;;;22.14;42.67;96138.69;5159505;27;20015;-86
2021/06/11 10:18:47;;;;;;;4.03;2.65;;;;;;;22.63;42.19;96152.50;5157124;27;20019;-86
2021/06/11 10:21:14;;;;;;;4.03;2.65;;;;;;;22.88;41.23;96160.44;5148600;27;20052;-86
2021/06/11 10:23:41;;;;;;;4.78;2.47;;;;;;;22.94;40.27;96134.09;5159486;27;20315;-86
2021/06/11 10:26:08;;;;;;;4.70;2.70;;;;;;;23.10;44.06;96123.81;5159155;27;20019;-86
2021/06/11 10:28:38;;;;;;;3.65;2.60;;;;;;;23.47;38.06;96163.28;5155779;27;20079;-86
2021/06/11 10:31:09;;;;;;;4.20;2.63;;;;;;;23.41;41.98;96121.16;5138197;27;20026;-86
2021/06/11 10:33:44;;;;;;;3.13;2.55;;;;;;;23.86;39.81;96158.63;5138085;27;20327;-86
2021/06/11 10:36:25;;;;;;;4.30;2.83;;;;;;;24.00;37.22;96157.16;5144718;27;20045;-86
2021/06/11 10:38:51;;;;;;;3.78;2.42;;;;;;;24.05;35.38;96159.03;5139440;27;20320;-86
2021/06/11 10:41:17;;;;;;;4.68;2.80;;;;;;;23.83;36.34;96135.53;5139152;27;20019;-86
2021/06/11 10:43:43;;;;;;;3.05;2.53;;;;;;;23.65;40.36;96092.25;5139589;27;20027;-87
2021/06/11 10:46:24;;;;;;;4.35;3.95;;;;;;;23.51;41.81;96120.09;5138025;27;20027;-87
2021/06/11 10:48:55;;;;;;;3.75;3.03;;;;;;;23.81;42.32;96146.44;5138069;27;20027;-87
2021/06/11 10:51:45;;;;;;;4.15;2.60;;;;;;;23.55;41.02;96136.38;5147178;27;20033;-87
2021/06/11 10:54:16;;;;;;;3.75;2.75;;;;;;;23.49;44.09;96139.31;5138043;27;20031;-87
2021/06/11 10:56:57;;;;;;;4.22;2.15;;;;;;;23.78;38.81;96134.41;5149262;27;20309;-87
2021/06/11 10:59:43;;;;;;;3.85;2.00;;;;;;;24.23;37.98;96124.63;5138001;27;20027;-87
2021/06/11 11:02:09;;;;;;;2.25;2.03;;;;;;;23.81;32.53;96037.56;5147886;27;20045;-87
2021/06/11 11:04:53;;;;;;;2.55;2.33;;;;;;;24.19;32.82;96065.31;5161870;27;20011;-87
2021/06/11 11:07:25;;;;;;;3.00;2.70;;;;;;;24.69;31.92;96113.53;5138361;27;20054;-88
2021/06/11 11:10:20;;;;;;;2.17;1.77;;;;;;;24.95;36.60;96109.56;5129505;27;20023;-87
2021/06/11 11:12:58;;;;;;;3.95;2.30;;;;;;;25.25;36.11;96108.00;5020754;28;20040;-86
2021/06/11 11:15:51;;;;;;;2.42;2.22;;;;;;;25.57;29.57;96098.94;5096298;28;20024;-85
2021/06/11 11:18:23;;;;;;;3.42;2.05;;;;;;;25.49;29.90;96095.47;5114918;27;20046;-86
2021/06/11 11:20:50;;;;;;;2.90;2.15;;;;;;;25.66;29.92;96064.97;5125095;27;20054;-85
2021/06/11 11:23:18;;;;;;;5.03;1.95;;;;;;;25.92;30.32;96091.50;5113180;28;20072;-85
2021/06/11 11:25:44;;;;;;;6.05;2.25;;;;;;;26.05;31.45;96096.78;5112657;27;20019;-84
2021/06/11 11:28:11;;;;;;;5.70;2.30;;;;;;;25.87;34.63;96053.53;5124858;27;20071;-85
2021/06/11 11:30:38;;;;;;;6.57;2.38;;;;;;;24.85;34.55;96027.41;5123559;27;20114;-85
2021/06/11 11:33:05;;;;;;;3.55;2.10;;;;;;;24.80;33.28;96093.69;5116309;28;20028;-85
2021/06/11 11:35:33;;;;;;;2.47;1.70;;;;;;;24.36;31.62;96053.66;5128328;27;20039;-84